createdAt,value
2022-09-11T00:01:55.763Z,7.10
2022-09-11T00:06:58.025Z,7.47
2022-09-11T00:11:56.561Z,7.10
2022-09-11T00:16:55.191Z,8.10
2022-09-11T00:21:57.452Z,7.47
2022-09-11T00:26:56.232Z,7.47
2022-09-11T00:32:20.251Z,7.03
2022-09-11T00:37:25.514Z,7.22
2022-09-11T00:42:25.321Z,6.32
2022-09-11T00:47:23.376Z,7.80
2022-09-11T00:52:28.514Z,6.68
2022-09-11T00:57:29.391Z,7.72
2022-09-11T01:02:28.853Z,7.13
2022-09-11T01:07:27.593Z,6.70
2022-09-11T01:12:38.481Z,7.13
2022-09-11T01:18:04.557Z,6.85
2022-09-11T01:23:25.332Z,6.63
2022-09-11T01:28:35.523Z,6.60
2022-09-11T01:33:57.234Z,7.85
2022-09-11T01:38:58.794Z,7.38
2022-09-11T01:44:07.319Z,6.63
2022-09-11T01:49:11.219Z,7.13
2022-09-11T01:54:17.219Z,6.50
2022-09-11T01:59:18.073Z,5.95
2022-09-11T02:04:22.544Z,6.80
2022-09-11T02:09:28.725Z,5.90
2022-09-11T02:14:37.522Z,6.20
2022-09-11T02:19:36.630Z,5.97
2022-09-11T02:24:35.270Z,6.00
2022-09-11T02:29:34.443Z,6.13
2022-09-11T02:34:36.086Z,5.75
2022-09-11T02:40:05.686Z,5.45
2022-09-11T02:45:13.895Z,5.55
2022-09-11T02:50:38.405Z,5.57
2022-09-11T02:55:37.219Z,5.63
2022-09-11T03:00:36.664Z,5.38
2022-09-11T03:05:37.368Z,5.13
2022-09-11T03:10:36.317Z,4.90
2022-09-11T03:15:34.901Z,4.35
2022-09-11T03:20:34.554Z,4.85
2022-09-11T03:25:35.843Z,5.28
2022-09-11T03:30:36.053Z,4.53
2022-09-11T03:35:45.804Z,6.35
2022-09-11T03:40:44.476Z,4.72
2022-09-11T03:45:49.986Z,5.22
2022-09-11T03:50:48.123Z,4.97
2022-09-11T03:55:46.465Z,5.30
2022-09-11T04:00:46.003Z,5.13
2022-09-11T04:05:56.573Z,4.18
2022-09-11T04:11:00.394Z,5.57
2022-09-11T04:16:07.440Z,3.92
2022-09-11T04:21:11.573Z,4.75
2022-09-11T04:26:18.705Z,4.10
2022-09-11T04:31:32.393Z,3.95
2022-09-11T04:36:34.794Z,3.53
2022-09-11T04:41:41.111Z,3.88
2022-09-11T04:46:43.419Z,3.80
2022-09-11T04:51:44.779Z,3.63
2022-09-11T04:56:45.267Z,3.35
2022-09-11T05:01:44.397Z,3.60
2022-09-11T05:06:48.391Z,3.20
2022-09-11T05:11:49.632Z,3.13
2022-09-11T05:16:48.573Z,3.53
2022-09-11T05:21:57.872Z,4.15
2022-09-11T05:26:59.129Z,3.63
2022-09-11T05:32:08.294Z,3.25
2022-09-11T05:37:06.805Z,3.20
2022-09-11T05:42:11.928Z,3.30
2022-09-11T05:47:15.486Z,4.05
2022-09-11T05:52:16.078Z,3.38
2022-09-11T05:57:18.455Z,3.05
2022-09-11T06:02:17.238Z,2.88
2022-09-11T06:07:37.632Z,3.30
2022-09-11T06:12:36.486Z,2.35
2022-09-11T06:17:46.056Z,2.55
2022-09-11T06:22:45.915Z,3.00
2022-09-11T06:27:44.543Z,3.08
2022-09-11T06:32:48.360Z,2.75
2022-09-11T06:42:45.768Z,3.25
2022-09-11T06:47:45.555Z,2.17
2022-09-11T06:52:44.212Z,2.53
2022-09-11T06:57:50.512Z,2.00
2022-09-11T07:02:53.724Z,2.55
2022-09-11T07:07:56.268Z,1.83
2022-09-11T07:13:05.973Z,2.88
2022-09-11T07:18:05.662Z,1.75
2022-09-11T07:23:04.395Z,1.65
2022-09-11T07:28:03.307Z,1.70
2022-09-11T07:33:01.993Z,2.20
2022-09-11T07:38:08.462Z,1.67
2022-09-11T07:43:10.404Z,1.92
2022-09-11T07:48:08.452Z,1.80
2022-09-11T07:53:06.585Z,2.10
2022-09-11T07:58:05.328Z,1.85
2022-09-11T08:03:06.780Z,1.83
2022-09-11T08:08:07.934Z,1.70
2022-09-11T08:13:09.751Z,1.60
2022-09-11T08:18:08.930Z,1.70
2022-09-11T08:23:07.180Z,1.45
2022-09-11T08:28:06.195Z,1.50
2022-09-11T08:33:06.138Z,1.55
2022-09-11T08:38:07.362Z,1.50
2022-09-11T08:43:05.775Z,1.55
2022-09-11T08:48:07.205Z,1.25
2022-09-11T08:53:10.909Z,1.13
2022-09-11T08:58:34.029Z,0.88
2022-09-11T09:03:54.302Z,1.20
2022-09-11T09:09:04.952Z,0.90
2022-09-11T09:14:23.163Z,0.93
2022-09-11T09:19:51.618Z,0.82
2022-09-11T09:24:54.715Z,0.75
2022-09-11T09:30:06.337Z,0.70
2022-09-11T09:35:14.192Z,1.02
2022-09-11T09:40:16.106Z,0.47
2022-09-11T09:45:31.404Z,0.88
2022-09-11T09:50:37.548Z,0.50
2022-09-11T09:55:36.175Z,0.55
2022-09-11T10:00:41.136Z,0.75
2022-09-11T10:05:43.279Z,0.50
2022-09-11T10:10:46.347Z,0.50
2022-09-11T10:15:44.282Z,0.65
2022-09-11T10:20:45.975Z,0.60
2022-09-11T10:25:50.077Z,0.60
2022-09-11T10:31:00.428Z,0.60
2022-09-11T10:36:00.862Z,0.55
2022-09-11T10:41:09.051Z,0.80
2022-09-11T10:46:25.447Z,0.52
2022-09-11T10:51:27.600Z,0.40
2022-09-11T10:56:29.098Z,0.23
2022-09-11T11:01:27.586Z,0.40
2022-09-11T11:06:49.683Z,0.95
2022-09-11T11:12:09.922Z,0.60
2022-09-11T11:17:13.652Z,0.45
2022-09-11T11:22:39.955Z,0.75
2022-09-11T11:28:04.098Z,0.50
2022-09-11T11:33:15.578Z,0.63
2022-09-11T11:38:39.678Z,0.90
2022-09-11T11:43:40.187Z,1.40
2022-09-11T11:48:46.188Z,1.70
2022-09-11T11:54:01.079Z,1.13
2022-09-11T11:59:16.428Z,1.30
2022-09-11T12:04:53.086Z,0.90
2022-09-11T12:09:53.762Z,0.75
2022-09-11T12:14:54.391Z,0.60
2022-09-11T12:20:11.103Z,0.70
2022-09-11T12:25:22.090Z,0.50
2022-09-11T12:30:23.581Z,0.47
2022-09-11T12:35:35.715Z,0.40
2022-09-11T12:41:02.141Z,0.70
2022-09-11T12:46:06.829Z,0.70
2022-09-11T12:51:06.424Z,0.80
2022-09-11T12:56:06.764Z,0.32
2022-09-11T13:01:14.095Z,0.57
2022-09-11T13:06:13.890Z,0.90
2022-09-11T13:11:44.294Z,0.50
2022-09-11T13:16:50.289Z,0.30
2022-09-11T13:21:52.346Z,0.25
2022-09-11T13:26:55.563Z,0.20
2022-09-11T13:36:57.769Z,0.40
2022-09-11T13:42:05.636Z,0.40
2022-09-11T13:47:22.503Z,0.20
2022-09-11T13:52:22.913Z,0.40
2022-09-11T13:57:23.412Z,0.43
2022-09-11T14:02:40.780Z,0.60
2022-09-11T14:07:48.666Z,0.30
2022-09-11T14:13:16.385Z,0.47
2022-09-11T14:18:25.264Z,0.35
2022-09-11T14:23:30.397Z,0.20
2022-09-11T14:29:05.389Z,0.30
2022-09-11T14:34:26.913Z,0.20
2022-09-11T14:39:30.241Z,0.30
2022-09-11T14:44:29.193Z,0.40
2022-09-11T14:49:30.444Z,2.50
2022-09-11T14:54:32.690Z,0.70
2022-09-11T14:59:32.102Z,0.70
2022-09-11T15:04:31.386Z,1.30
2022-09-11T15:09:29.472Z,0.55
2022-09-11T15:14:52.332Z,0.50
2022-09-11T15:19:49.799Z,1.15
2022-09-11T15:24:49.227Z,0.95
2022-09-11T15:29:47.378Z,0.90
2022-09-11T15:34:45.739Z,0.90
2022-09-11T15:39:44.179Z,0.95
2022-09-11T15:44:46.406Z,0.70
2022-09-11T15:49:44.967Z,0.50
2022-09-11T15:54:47.113Z,0.63
2022-09-11T15:59:45.594Z,0.50
2022-09-11T16:04:53.943Z,0.55
2022-09-11T16:09:52.907Z,0.70
2022-09-11T16:14:54.001Z,0.65
2022-09-11T16:19:52.032Z,0.50
2022-09-11T16:24:51.120Z,0.40
2022-09-11T16:30:25.885Z,0.40
2022-09-11T16:35:19.940Z,0.28
2022-09-11T16:40:18.991Z,0.88
2022-09-11T16:45:17.467Z,0.50
2022-09-11T16:50:18.904Z,0.30
2022-09-11T16:55:19.889Z,0.45
2022-09-11T17:00:23.658Z,0.38
2022-09-11T17:05:22.907Z,0.43
2022-09-11T17:10:24.323Z,0.45
2022-09-11T17:15:28.591Z,0.30
2022-09-11T17:20:29.312Z,0.47
2022-09-11T17:25:28.913Z,0.32
2022-09-11T17:30:32.445Z,0.50
2022-09-11T17:35:34.314Z,0.45
2022-09-11T17:40:36.085Z,0.60
2022-09-11T17:45:38.209Z,0.80
2022-09-11T17:50:37.370Z,0.50
2022-09-11T17:55:40.600Z,0.60
2022-09-11T18:00:45.939Z,0.70
2022-09-11T18:05:46.842Z,0.88
2022-09-11T18:11:02.518Z,0.90
2022-09-11T18:16:00.604Z,1.30
2022-09-11T18:21:08.203Z,0.95
2022-09-11T18:26:10.363Z,1.35
2022-09-11T18:31:19.468Z,1.00
2022-09-11T18:36:20.810Z,0.80
2022-09-11T18:41:22.795Z,0.88
2022-09-11T18:46:22.250Z,1.00
2022-09-11T18:51:28.258Z,1.27
2022-09-11T18:56:31.977Z,0.90
2022-09-11T19:01:32.583Z,0.77
2022-09-11T19:06:31.191Z,0.82
2022-09-11T19:11:33.349Z,1.05
2022-09-11T19:16:33.449Z,0.73
2022-09-11T19:21:31.437Z,0.90
2022-09-11T19:26:40.551Z,1.00
2022-09-11T19:31:42.590Z,0.90
2022-09-11T19:36:41.816Z,0.80
2022-09-11T19:41:40.798Z,0.82
2022-09-11T19:46:46.284Z,1.30
2022-09-11T19:51:46.655Z,1.15
2022-09-11T19:56:47.894Z,1.17
2022-09-11T20:01:49.411Z,1.50
2022-09-11T20:11:44.258Z,1.92
2022-09-11T20:16:43.332Z,1.90
2022-09-11T20:21:42.347Z,1.80
2022-09-11T20:26:47.099Z,1.80
2022-09-11T20:31:48.265Z,1.70
2022-09-11T20:36:46.917Z,1.92
2022-09-11T20:41:48.982Z,1.92
2022-09-11T20:46:47.938Z,1.52
2022-09-11T20:51:45.579Z,1.38
2022-09-11T20:56:44.586Z,1.35
2022-09-11T21:01:43.421Z,1.10
2022-09-11T21:06:45.172Z,1.10
2022-09-11T21:11:44.055Z,1.20
2022-09-11T21:16:46.165Z,0.93
2022-09-11T21:21:44.495Z,0.98
2022-09-11T21:26:47.250Z,1.00
2022-09-11T21:31:44.677Z,1.07
2022-09-11T21:36:45.731Z,1.40
2022-09-11T21:41:46.595Z,2.22
2022-09-11T21:46:47.185Z,2.05
2022-09-11T21:51:45.401Z,2.00
2022-09-11T21:56:48.343Z,1.60
2022-09-11T22:01:49.911Z,1.77
2022-09-11T22:06:50.550Z,1.35
2022-09-11T22:11:48.330Z,1.27
2022-09-11T22:16:46.766Z,1.15
2022-09-11T22:21:44.352Z,1.17
2022-09-11T22:26:42.686Z,0.82
2022-09-11T22:31:43.465Z,0.50
2022-09-11T22:36:45.151Z,0.63
2022-09-11T22:41:48.092Z,0.45
2022-09-11T22:46:48.900Z,0.50
2022-09-11T22:51:48.184Z,1.90
2022-09-11T22:56:47.115Z,0.70
2022-09-11T23:01:47.699Z,0.60
2022-09-11T23:07:06.185Z,0.68
2022-09-11T23:12:05.593Z,0.65
2022-09-11T23:17:04.767Z,0.50
2022-09-11T23:22:03.293Z,0.63
2022-09-11T23:27:05.200Z,0.70
2022-09-11T23:32:03.911Z,0.90
2022-09-11T23:37:02.627Z,0.68
2022-09-11T23:42:01.599Z,0.82
2022-09-11T23:47:01.680Z,0.93
2022-09-11T23:52:03.411Z,0.95
2022-09-11T23:57:02.180Z,1.15
